createdAt,value
2019-04-16T00:01:50.992Z,100.00
2019-04-16T00:04:37.775Z,100.00
2019-04-16T00:07:24.687Z,100.00
2019-04-16T00:10:22.193Z,100.00
2019-04-16T00:13:22.078Z,100.00
2019-04-16T00:15:51.143Z,100.00
2019-04-16T00:18:20.205Z,100.00
2019-04-16T00:20:59.420Z,100.00
2019-04-16T00:23:47.372Z,100.00
2019-04-16T00:26:16.382Z,100.00
2019-04-16T00:28:45.426Z,100.00
2019-04-16T00:31:14.490Z,100.00
2019-04-16T00:33:43.876Z,100.00
2019-04-16T00:36:15.336Z,100.00
2019-04-16T00:38:43.708Z,100.00
2019-04-16T00:41:13.062Z,100.00
2019-04-16T00:43:44.143Z,100.00
2019-04-16T00:46:12.855Z,100.00
2019-04-16T00:48:41.910Z,100.00
2019-04-16T00:51:10.927Z,100.00
2019-04-16T00:53:39.983Z,100.00
2019-04-16T00:56:09.139Z,100.00
2019-04-16T00:58:38.190Z,100.00
2019-04-16T01:01:07.223Z,100.00
2019-04-16T01:03:36.271Z,100.00
2019-04-16T01:06:07.763Z,100.00
2019-04-16T01:08:36.127Z,100.00
2019-04-16T01:11:05.169Z,100.00
2019-04-16T01:13:34.517Z,100.00
2019-04-16T01:16:04.198Z,100.00
2019-04-16T01:18:33.190Z,100.00
2019-04-16T01:21:02.504Z,100.00
2019-04-16T01:23:31.502Z,100.00
2019-04-16T01:26:00.549Z,100.00
2019-04-16T01:28:32.699Z,100.00
2019-04-16T01:31:23.570Z,100.00
2019-04-16T01:34:27.167Z,100.00
2019-04-16T01:37:14.099Z,100.00
2019-04-16T01:39:47.437Z,100.00
2019-04-16T01:42:13.896Z,100.00
2019-04-16T01:44:42.975Z,100.00
2019-04-16T01:47:11.996Z,100.00
2019-04-16T01:49:42.231Z,100.00
2019-04-16T01:52:12.157Z,100.00
2019-04-16T01:54:41.171Z,100.00
2019-04-16T01:57:10.217Z,100.00
2019-04-16T01:59:39.252Z,100.00
2019-04-16T02:02:08.290Z,100.00
2019-04-16T02:04:37.306Z,100.00
2019-04-16T02:07:06.361Z,100.00
2019-04-16T02:09:35.743Z,100.00
2019-04-16T02:12:04.857Z,100.00
2019-04-16T02:14:33.866Z,100.00
2019-04-16T02:17:02.923Z,100.00
2019-04-16T02:19:32.992Z,100.00
2019-04-16T02:22:02.581Z,100.00
2019-04-16T02:24:31.650Z,100.00
2019-04-16T02:27:00.668Z,100.00
2019-04-16T02:29:30.545Z,100.00
2019-04-16T02:32:00.033Z,100.00
2019-04-16T02:34:29.104Z,100.00
2019-04-16T02:37:02.276Z,100.00
2019-04-16T02:39:46.994Z,100.00
2019-04-16T02:41:59.651Z,100.00
2019-04-16T02:44:28.709Z,100.00
2019-04-16T02:47:01.486Z,100.00
2019-04-16T02:49:28.519Z,100.00
2019-04-16T02:52:34.694Z,100.00
2019-04-16T02:55:22.736Z,100.00
2019-04-16T02:58:07.610Z,100.00
2019-04-16T03:00:55.766Z,100.00
2019-04-16T03:03:31.311Z,100.00
2019-04-16T03:06:01.034Z,100.00
2019-04-16T03:08:33.394Z,100.00
2019-04-16T03:11:02.027Z,100.00
2019-04-16T03:13:31.184Z,100.00
2019-04-16T03:16:18.409Z,100.00
2019-04-16T03:18:54.669Z,100.00
2019-04-16T03:21:24.484Z,100.00
2019-04-16T03:23:55.259Z,100.00
2019-04-16T03:26:24.271Z,100.00
2019-04-16T03:28:55.697Z,100.00
2019-04-16T03:31:24.085Z,100.00
2019-04-16T03:33:53.407Z,100.00
2019-04-16T03:36:22.425Z,100.00
2019-04-16T03:38:51.484Z,100.00
2019-04-16T03:41:20.497Z,100.00
2019-04-16T03:43:49.877Z,100.00
2019-04-16T03:46:18.902Z,100.00
2019-04-16T03:48:47.969Z,100.00
2019-04-16T03:51:17.343Z,100.00
2019-04-16T03:53:49.286Z,100.00
2019-04-16T03:56:17.176Z,100.00
2019-04-16T03:58:46.474Z,100.00
2019-04-16T04:01:15.821Z,100.00
2019-04-16T04:03:44.963Z,100.00
2019-04-16T04:06:14.037Z,100.00
2019-04-16T04:08:47.945Z,100.00
2019-04-16T04:11:13.796Z,100.00
2019-04-16T04:13:42.847Z,100.00
2019-04-16T04:16:11.856Z,100.00
2019-04-16T04:18:43.133Z,100.00
2019-04-16T04:21:11.658Z,100.00
2019-04-16T04:23:40.764Z,100.00
2019-04-16T04:26:10.257Z,100.00
2019-04-16T04:28:39.432Z,100.00
2019-04-16T04:31:08.439Z,100.00
2019-04-16T04:33:41.362Z,100.00
2019-04-16T04:36:10.372Z,100.00
2019-04-16T04:38:39.653Z,100.00
2019-04-16T04:41:09.124Z,100.00
2019-04-16T04:43:38.572Z,100.00
2019-04-16T04:46:12.944Z,100.00
2019-04-16T04:48:38.562Z,100.00
2019-04-16T04:51:08.725Z,100.00
2019-04-16T04:53:38.006Z,100.00
2019-04-16T04:56:07.016Z,100.00
2019-04-16T04:58:36.119Z,100.00
2019-04-16T05:01:05.143Z,100.00
2019-04-16T05:04:02.635Z,100.00
2019-04-16T05:06:35.338Z,100.00
2019-04-16T05:09:06.215Z,100.00
2019-04-16T05:11:35.282Z,100.00
2019-04-16T05:14:04.394Z,98.25
2019-04-16T05:16:34.348Z,95.27
2019-04-16T05:19:04.249Z,91.43
2019-04-16T05:21:33.262Z,87.60
2019-04-16T05:24:02.189Z,85.29
2019-04-16T05:26:33.532Z,83.59
2019-04-16T05:29:16.548Z,82.12
2019-04-16T05:31:43.007Z,80.57
2019-04-16T05:34:12.066Z,80.53
2019-04-16T05:36:46.208Z,76.05
2019-04-16T05:39:12.075Z,76.01
2019-04-16T05:41:41.081Z,73.08
2019-04-16T05:44:10.161Z,71.26
2019-04-16T05:46:41.773Z,69.85
2019-04-16T05:49:10.388Z,70.09
2019-04-16T05:51:39.443Z,69.65
2019-04-16T05:54:33.563Z,70.14
2019-04-16T05:57:02.712Z,69.32
2019-04-16T05:59:33.797Z,69.34
2019-04-16T06:02:10.772Z,69.26
2019-04-16T06:04:39.794Z,70.93
2019-04-16T06:07:08.840Z,68.91
2019-04-16T06:09:38.151Z,68.48
2019-04-16T06:12:08.751Z,69.44
2019-04-16T06:15:00.048Z,68.69
2019-04-16T06:17:42.764Z,67.63
2019-04-16T06:20:20.670Z,67.64
2019-04-16T06:23:03.890Z,68.33
2019-04-16T06:25:43.294Z,68.36
2019-04-16T06:28:32.285Z,66.79
2019-04-16T06:31:23.162Z,68.66
2019-04-16T06:34:10.220Z,71.71
2019-04-16T06:36:47.005Z,73.48
2019-04-16T06:39:35.050Z,74.81
2019-04-16T06:42:26.345Z,76.41
2019-04-16T06:44:57.080Z,83.50
2019-04-16T06:47:48.026Z,89.99
2019-04-16T06:50:42.205Z,89.39
2019-04-16T06:53:23.831Z,79.41
2019-04-16T06:56:08.592Z,78.93
2019-04-16T06:58:57.518Z,81.42
2019-04-16T07:01:36.711Z,81.57
2019-04-16T07:04:07.270Z,84.13
2019-04-16T07:07:07.998Z,80.24
2019-04-16T07:09:41.860Z,77.62
2019-04-16T07:12:16.100Z,76.12
2019-04-16T07:14:45.622Z,75.26
2019-04-16T07:17:18.010Z,79.22
2019-04-16T07:19:46.664Z,83.74
2019-04-16T07:22:20.687Z,89.11
2019-04-16T07:24:48.070Z,89.95
2019-04-16T07:27:20.084Z,89.92
2019-04-16T07:29:51.258Z,85.36
2019-04-16T07:32:51.705Z,86.05
2019-04-16T07:35:39.730Z,86.21
2019-04-16T07:38:15.058Z,91.27
2019-04-16T07:41:12.420Z,95.39
2019-04-16T07:44:04.458Z,93.30
2019-04-16T07:46:47.954Z,92.91
2019-04-16T07:49:59.065Z,94.43
2019-04-16T07:52:42.043Z,93.07
2019-04-16T07:55:28.069Z,94.39
2019-04-16T07:57:57.874Z,96.15
2019-04-16T08:00:26.952Z,94.49
2019-04-16T08:02:56.179Z,94.75
2019-04-16T08:05:27.796Z,94.60
2019-04-16T08:07:56.329Z,95.78
2019-04-16T08:10:25.332Z,96.91
2019-04-16T08:13:00.494Z,94.82
2019-04-16T08:15:29.660Z,93.64
2019-04-16T08:17:58.643Z,92.12
2019-04-16T08:20:27.653Z,88.84
2019-04-16T08:23:00.320Z,89.22
2019-04-16T08:25:33.874Z,91.83
2019-04-16T08:28:01.473Z,97.06
2019-04-16T08:30:34.630Z,98.98
2019-04-16T08:33:01.187Z,100.00
2019-04-16T08:35:30.114Z,98.94
2019-04-16T08:37:59.278Z,94.44
2019-04-16T08:40:28.289Z,92.12
2019-04-16T08:42:58.355Z,88.68
2019-04-16T08:45:27.737Z,89.19
2019-04-16T08:47:56.805Z,91.69
2019-04-16T08:50:26.797Z,91.69
2019-04-16T08:52:55.995Z,93.57
2019-04-16T08:55:25.032Z,94.68
2019-04-16T08:57:54.045Z,93.78
2019-04-16T09:00:23.273Z,94.74
2019-04-16T09:02:52.205Z,97.65
2019-04-16T09:05:21.224Z,96.71
2019-04-16T09:07:50.959Z,95.67
2019-04-16T09:10:23.752Z,94.61
2019-04-16T09:13:03.040Z,93.35
2019-04-16T09:15:27.353Z,90.87
2019-04-16T09:18:12.021Z,89.78
2019-04-16T09:20:42.347Z,89.24
2019-04-16T09:23:11.412Z,89.10
2019-04-16T09:26:12.056Z,89.74
2019-04-16T09:28:47.234Z,90.46
2019-04-16T09:31:34.055Z,91.98
2019-04-16T09:34:15.818Z,95.00
2019-04-16T09:37:15.678Z,93.28
2019-04-16T09:40:15.600Z,94.28
2019-04-16T09:42:33.755Z,92.59
2019-04-16T09:45:05.057Z,92.14
2019-04-16T09:47:33.702Z,92.37
2019-04-16T09:50:02.777Z,91.69
2019-04-16T09:52:31.640Z,93.23
2019-04-16T09:55:00.646Z,93.04
2019-04-16T09:57:31.438Z,91.56
2019-04-16T10:00:01.752Z,88.18
2019-04-16T10:02:33.462Z,88.67
2019-04-16T10:05:02.688Z,89.22
2019-04-16T10:07:31.777Z,88.83
2019-04-16T10:10:00.851Z,89.72
2019-04-16T10:12:29.910Z,86.85
2019-04-16T10:14:58.970Z,88.13
2019-04-16T10:17:28.048Z,88.68
2019-04-16T10:19:57.088Z,87.07
2019-04-16T10:22:26.829Z,83.77
2019-04-16T10:25:06.327Z,84.45
2019-04-16T10:27:57.201Z,87.51
2019-04-16T10:30:34.027Z,90.95
2019-04-16T10:33:03.101Z,88.33
2019-04-16T10:35:32.104Z,88.60
2019-04-16T10:38:06.097Z,86.65
2019-04-16T10:40:40.910Z,86.88
2019-04-16T10:43:27.888Z,89.44
2019-04-16T10:46:20.149Z,88.51
2019-04-16T10:49:17.510Z,88.63
2019-04-16T10:51:58.233Z,84.38
2019-04-16T10:54:37.390Z,82.59
2019-04-16T10:57:41.381Z,84.42
2019-04-16T11:00:41.667Z,80.71
2019-04-16T11:03:15.258Z,79.73
2019-04-16T11:05:56.802Z,80.41
2019-04-16T11:08:22.837Z,82.83
2019-04-16T11:10:51.836Z,82.46
2019-04-16T11:13:33.338Z,83.24
2019-04-16T11:16:14.882Z,80.94
2019-04-16T11:18:43.911Z,81.73
2019-04-16T11:21:13.053Z,80.66
2019-04-16T11:23:42.143Z,83.24
2019-04-16T11:26:11.156Z,81.03
2019-04-16T11:28:40.186Z,79.56
2019-04-16T11:31:14.910Z,80.29
2019-04-16T11:33:43.943Z,77.69
2019-04-16T11:36:19.869Z,74.55
2019-04-16T11:38:43.738Z,76.70
2019-04-16T11:41:13.154Z,75.65
2019-04-16T11:43:42.242Z,76.94
2019-04-16T11:46:11.614Z,78.99
2019-04-16T11:48:40.941Z,79.24
2019-04-16T11:51:10.094Z,77.78
2019-04-16T11:53:39.223Z,76.97
2019-04-16T11:56:08.229Z,79.05
2019-04-16T11:58:44.849Z,82.69
2019-04-16T12:01:32.822Z,83.96
2019-04-16T12:04:26.689Z,81.16
2019-04-16T12:07:09.671Z,77.09
2019-04-16T12:10:12.866Z,79.54
2019-04-16T12:12:53.233Z,81.82
2019-04-16T12:15:59.661Z,78.61
2019-04-16T12:18:47.716Z,80.31
2019-04-16T12:21:30.225Z,78.95
2019-04-16T12:24:11.423Z,81.96
2019-04-16T12:26:58.055Z,81.08
2019-04-16T12:29:46.048Z,78.57
2019-04-16T12:32:29.005Z,80.89
2019-04-16T12:35:20.091Z,80.71
2019-04-16T12:38:18.181Z,80.86
2019-04-16T12:40:51.454Z,82.44
2019-04-16T12:43:34.956Z,78.12
2019-04-16T12:46:20.605Z,75.79
2019-04-16T12:49:07.216Z,73.43
2019-04-16T12:51:53.594Z,72.41
2019-04-16T12:54:46.592Z,72.13
2019-04-16T12:57:33.601Z,74.83
2019-04-16T13:00:27.331Z,76.44
2019-04-16T13:03:20.582Z,75.21
2019-04-16T13:06:07.236Z,77.25
2019-04-16T13:09:07.686Z,75.54
2019-04-16T13:12:01.950Z,71.07
2019-04-16T13:15:00.781Z,73.93
2019-04-16T13:17:44.698Z,74.49
2019-04-16T13:20:39.796Z,78.41
2019-04-16T13:23:18.833Z,78.64
2019-04-16T13:25:58.120Z,77.49
2019-04-16T13:28:27.365Z,79.84
2019-04-16T13:30:56.386Z,79.98
2019-04-16T13:33:25.359Z,80.67
2019-04-16T13:35:54.422Z,81.00
2019-04-16T13:38:24.738Z,79.27
2019-04-16T13:40:54.184Z,82.08
2019-04-16T13:43:27.366Z,82.27
2019-04-16T13:45:58.159Z,82.45
2019-04-16T13:48:34.068Z,83.29
2019-04-16T13:51:06.990Z,84.53
2019-04-16T13:54:00.840Z,84.98
2019-04-16T13:56:51.562Z,84.89
2019-04-16T13:59:31.052Z,85.26
2019-04-16T14:02:11.165Z,85.67
2019-04-16T14:04:40.182Z,87.53
2019-04-16T14:07:09.221Z,88.73
2019-04-16T14:09:38.235Z,91.21
2019-04-16T14:12:07.437Z,92.43
2019-04-16T14:14:36.533Z,92.00
2019-04-16T14:17:10.295Z,92.68
2019-04-16T14:19:37.890Z,94.67
2019-04-16T14:22:07.508Z,94.38
2019-04-16T14:24:36.484Z,93.77
2019-04-16T14:27:06.303Z,95.47
2019-04-16T14:29:35.864Z,98.15
2019-04-16T14:32:06.115Z,95.62
2019-04-16T14:34:42.435Z,93.52
2019-04-16T14:37:11.608Z,91.75
2019-04-16T14:39:44.210Z,90.44
2019-04-16T14:42:13.313Z,91.85
2019-04-16T14:44:49.466Z,90.78
2019-04-16T14:47:18.590Z,91.44
2019-04-16T14:49:50.235Z,91.27
2019-04-16T14:52:18.477Z,91.08
2019-04-16T14:54:52.639Z,89.62
2019-04-16T14:57:21.655Z,88.88
2019-04-16T15:00:11.471Z,87.77
2019-04-16T15:03:02.530Z,89.35
2019-04-16T15:05:38.851Z,89.79
2019-04-16T15:08:26.843Z,88.92
2019-04-16T15:11:29.979Z,89.54
2019-04-16T15:14:17.065Z,89.93
2019-04-16T15:17:05.517Z,91.10
2019-04-16T15:19:38.175Z,90.57
2019-04-16T15:22:25.007Z,90.32
2019-04-16T15:25:12.192Z,89.44
2019-04-16T15:27:55.121Z,88.38
2019-04-16T15:30:42.365Z,89.77
2019-04-16T15:33:45.990Z,90.27
2019-04-16T15:36:19.512Z,88.47
2019-04-16T15:39:10.658Z,88.53
2019-04-16T15:42:04.344Z,90.76
2019-04-16T15:44:38.487Z,90.19
2019-04-16T15:47:25.655Z,91.50
2019-04-16T15:49:58.777Z,92.17
2019-04-16T15:52:49.565Z,92.52
2019-04-16T15:55:37.599Z,94.58
2019-04-16T15:58:23.615Z,94.91
2019-04-16T16:01:11.643Z,97.09
2019-04-16T16:03:58.267Z,97.18
2019-04-16T16:06:28.602Z,96.86
2019-04-16T16:09:14.390Z,98.11
2019-04-16T16:12:14.706Z,97.22
2019-04-16T16:14:43.754Z,96.35
2019-04-16T16:17:13.016Z,96.47
2019-04-16T16:19:42.027Z,96.82
2019-04-16T16:22:12.130Z,96.89
2019-04-16T16:24:42.314Z,98.04
2019-04-16T16:27:12.053Z,98.27
2019-04-16T16:29:41.063Z,98.56
2019-04-16T16:32:10.122Z,97.36
2019-04-16T16:34:39.151Z,98.66
2019-04-16T16:37:08.200Z,98.81
2019-04-16T16:39:37.225Z,99.52
2019-04-16T16:42:06.282Z,100.00
2019-04-16T16:44:35.313Z,100.00
2019-04-16T16:47:10.134Z,100.00
2019-04-16T16:49:39.054Z,100.00
2019-04-16T16:52:36.657Z,100.00
2019-04-16T16:55:08.317Z,100.00
2019-04-16T16:57:42.634Z,100.00
2019-04-16T17:00:33.727Z,100.00
2019-04-16T17:03:12.927Z,100.00
2019-04-16T17:05:42.377Z,100.00
2019-04-16T17:08:11.418Z,100.00
2019-04-16T17:10:42.372Z,100.00
2019-04-16T17:13:14.601Z,100.00
2019-04-16T17:15:42.006Z,100.00
2019-04-16T17:18:11.057Z,100.00
2019-04-16T17:20:41.343Z,100.00
2019-04-16T17:23:10.827Z,100.00
2019-04-16T17:25:39.865Z,100.00
2019-04-16T17:28:08.903Z,100.00
2019-04-16T17:30:37.960Z,100.00
2019-04-16T17:33:07.647Z,100.00
2019-04-16T17:35:36.970Z,100.00
2019-04-16T17:38:06.887Z,100.00
2019-04-16T17:40:51.107Z,100.00
2019-04-16T17:43:27.094Z,100.00
2019-04-16T17:46:17.887Z,100.00
2019-04-16T17:48:58.790Z,100.00
2019-04-16T17:51:39.325Z,100.00
2019-04-16T17:54:24.121Z,100.00
2019-04-16T17:57:12.987Z,100.00
2019-04-16T17:59:48.797Z,100.00
2019-04-16T18:02:35.400Z,100.00
2019-04-16T18:05:23.431Z,100.00
2019-04-16T18:08:08.238Z,100.00
2019-04-16T18:11:09.966Z,100.00
2019-04-16T18:13:55.311Z,100.00
2019-04-16T18:16:33.533Z,100.00
2019-04-16T18:19:07.796Z,100.00
2019-04-16T18:21:45.099Z,100.00
2019-04-16T18:24:36.987Z,100.00
2019-04-16T18:27:30.914Z,100.00
2019-04-16T18:30:16.626Z,100.00
2019-04-16T18:33:07.511Z,100.00
2019-04-16T18:35:55.681Z,100.00
2019-04-16T18:39:01.227Z,100.00
2019-04-16T18:41:37.447Z,100.00
2019-04-16T18:44:28.989Z,100.00
2019-04-16T18:47:13.963Z,100.00
2019-04-16T18:49:43.504Z,100.00
2019-04-16T18:52:12.833Z,100.00
2019-04-16T18:54:42.278Z,100.00
2019-04-16T18:57:11.529Z,100.00
2019-04-16T18:59:41.057Z,100.00
2019-04-16T19:02:10.677Z,100.00
2019-04-16T19:04:39.762Z,100.00
2019-04-16T19:07:08.819Z,100.00
2019-04-16T19:09:37.828Z,100.00
2019-04-16T19:12:07.017Z,100.00
2019-04-16T19:14:36.649Z,100.00
2019-04-16T19:17:06.209Z,100.00
2019-04-16T19:19:35.148Z,100.00
2019-04-16T19:22:04.398Z,100.00
2019-04-16T19:24:33.740Z,100.00
2019-04-16T19:27:02.867Z,100.00
2019-04-16T19:29:31.853Z,100.00
2019-04-16T19:32:00.977Z,100.00
2019-04-16T19:34:30.321Z,100.00
2019-04-16T19:37:00.811Z,100.00
2019-04-16T19:39:30.165Z,100.00
2019-04-16T19:41:59.227Z,100.00
2019-04-16T19:44:28.226Z,100.00
2019-04-16T19:46:57.301Z,100.00
2019-04-16T19:49:26.305Z,100.00
2019-04-16T19:51:55.355Z,100.00
2019-04-16T19:54:24.718Z,100.00
2019-04-16T19:56:53.783Z,100.00
2019-04-16T19:59:22.802Z,100.00
2019-04-16T20:01:51.825Z,100.00
2019-04-16T20:04:20.871Z,100.00
2019-04-16T20:06:49.885Z,100.00
2019-04-16T20:09:19.307Z,100.00
2019-04-16T20:11:48.314Z,100.00
2019-04-16T20:14:17.326Z,100.00
2019-04-16T20:16:46.333Z,100.00
2019-04-16T20:19:15.389Z,100.00
2019-04-16T20:21:44.441Z,100.00
2019-04-16T20:24:13.464Z,100.00
2019-04-16T20:26:42.797Z,100.00
2019-04-16T20:29:12.206Z,100.00
2019-04-16T20:31:41.223Z,100.00
2019-04-16T20:34:12.611Z,100.00
2019-04-16T20:36:41.150Z,100.00
2019-04-16T20:39:10.149Z,100.00
2019-04-16T20:41:39.213Z,100.00
2019-04-16T20:44:09.312Z,100.00
2019-04-16T20:46:38.517Z,100.00
2019-04-16T20:49:10.618Z,100.00
2019-04-16T20:51:38.998Z,100.00
2019-04-16T20:54:12.866Z,100.00
2019-04-16T20:56:40.673Z,100.00
2019-04-16T20:59:09.517Z,100.00
2019-04-16T21:01:38.571Z,100.00
2019-04-16T21:04:07.610Z,100.00
2019-04-16T21:06:40.812Z,100.00
2019-04-16T21:09:08.365Z,100.00
2019-04-16T21:11:41.168Z,100.00
2019-04-16T21:14:09.449Z,100.00
2019-04-16T21:16:38.395Z,100.00
2019-04-16T21:19:22.104Z,100.00
2019-04-16T21:21:38.297Z,100.00
2019-04-16T21:24:08.566Z,100.00
2019-04-16T21:26:38.206Z,100.00
2019-04-16T21:29:17.198Z,100.00
2019-04-16T21:31:49.730Z,100.00
2019-04-16T21:34:32.509Z,100.00
2019-04-16T21:37:19.628Z,100.00
2019-04-16T21:39:52.886Z,100.00
2019-04-16T21:42:21.891Z,100.00
2019-04-16T21:44:50.941Z,100.00
2019-04-16T21:47:23.135Z,100.00
2019-04-16T21:49:50.770Z,100.00
2019-04-16T21:52:23.226Z,100.00
2019-04-16T21:54:50.569Z,100.00
2019-04-16T21:57:19.930Z,100.00
2019-04-16T21:59:50.246Z,100.00
2019-04-16T22:02:24.779Z,100.00
2019-04-16T22:04:53.826Z,100.00
2019-04-16T22:07:24.632Z,100.00
2019-04-16T22:09:53.939Z,100.00
2019-04-16T22:12:22.981Z,100.00
2019-04-16T22:14:54.251Z,100.00
2019-04-16T22:17:22.796Z,100.00
2019-04-16T22:19:54.348Z,100.00
2019-04-16T22:22:22.594Z,100.00
2019-04-16T22:24:54.818Z,100.00
2019-04-16T22:27:23.061Z,100.00
2019-04-16T22:29:52.006Z,100.00
2019-04-16T22:32:21.038Z,100.00
2019-04-16T22:34:50.463Z,100.00
2019-04-16T22:37:19.472Z,100.00
2019-04-16T22:40:07.519Z,100.00
2019-04-16T22:43:07.001Z,100.00
2019-04-16T22:45:54.785Z,100.00
2019-04-16T22:48:23.722Z,100.00
2019-04-16T22:50:52.652Z,100.00
2019-04-16T22:53:21.637Z,100.00
2019-04-16T22:55:56.397Z,100.00
2019-04-16T22:58:25.056Z,100.00
2019-04-16T23:00:59.455Z,100.00
2019-04-16T23:03:28.796Z,100.00
2019-04-16T23:06:00.901Z,100.00
2019-04-16T23:08:28.593Z,100.00
2019-04-16T23:10:57.605Z,100.00
2019-04-16T23:13:32.271Z,100.00
2019-04-16T23:15:58.259Z,100.00
2019-04-16T23:18:27.627Z,100.00
2019-04-16T23:20:57.281Z,100.00
2019-04-16T23:23:26.265Z,100.00
2019-04-16T23:25:59.003Z,100.00
2019-04-16T23:28:26.732Z,100.00
2019-04-16T23:30:55.778Z,100.00
2019-04-16T23:33:24.791Z,100.00
2019-04-16T23:35:53.816Z,100.00
2019-04-16T23:38:22.830Z,100.00
2019-04-16T23:40:52.134Z,100.00
2019-04-16T23:43:34.060Z,100.00
2019-04-16T23:46:22.057Z,100.00
2019-04-16T23:49:03.396Z,100.00
2019-04-16T23:51:39.654Z,100.00
2019-04-16T23:54:18.521Z,100.00
2019-04-16T23:56:54.264Z,100.00
2019-04-16T23:59:42.227Z,100.00
